Time;durP1;ratioP1;P1;durP2;ratioP2;P2;SDS_P1;SDS_P2;PMS_P1;PMS_P2;Temp;Humidity;BMP_temperature;BMP_pressure;BME280_temperature;BME280_humidity;BME280_pressure;Samples;Min_cycle;Max_cycle;Signal;HPM_P1;HPM_P2
2021/12/13 00:01:45;;;;;;;4.27;1.90;;;8.30;99.90;;;;;;5007576;28;20178;-75
2021/12/13 00:04:31;;;;;;;1.90;1.77;;;8.30;99.90;;;;;;5011752;28;20163;-75
2021/12/13 00:07:22;;;;;;;3.30;2.10;;;8.40;99.90;;;;;;5010299;28;20193;-75
2021/12/13 00:09:52;;;;;;;5.53;2.23;;;8.30;99.90;;;;;;5001390;28;20194;-76
2021/12/13 00:12:29;;;;;;;3.00;2.07;;;8.30;99.90;;;;;;5010495;28;20178;-77
2021/12/13 00:14:57;;;;;;;4.47;2.30;;;8.20;99.90;;;;;;5010359;28;20210;-75
2021/12/13 00:17:43;;;;;;;3.80;2.27;;;8.20;99.90;;;;;;4994178;28;20193;-76
2021/12/13 00:20:16;;;;;;;4.40;2.20;;;8.10;99.90;;;;;;4996064;28;20187;-75
2021/12/13 00:22:52;;;;;;;2.83;1.80;;;8.00;99.90;;;;;;5010033;28;20181;-78
2021/12/13 00:25:23;;;;;;;4.33;2.33;;;8.00;99.90;;;;;;5010584;28;20174;-78
2021/12/13 00:27:58;;;;;;;3.63;2.20;;;8.10;99.90;;;;;;4994133;28;20209;-76
2021/12/13 00:30:37;;;;;;;3.63;2.30;;;8.20;99.90;;;;;;5011582;28;20175;-77
2021/12/13 00:33:20;;;;;;;2.53;2.07;;;8.30;99.90;;;;;;5011551;28;20541;-75
2021/12/13 00:35:50;;;;;;;5.70;2.30;;;8.30;99.90;;;;;;5009693;28;20227;-74
2021/12/13 00:38:21;;;;;;;4.70;2.20;;;8.20;99.90;;;;;;5010052;28;20217;-77
2021/12/13 00:40:53;;;;;;;2.33;1.90;;;8.20;99.90;;;;;;4993629;28;20174;-78
2021/12/13 00:43:34;;;;;;;5.67;2.37;;;8.10;99.90;;;;;;5010321;28;20170;-76
2021/12/13 00:46:07;;;;;;;3.27;1.87;;;8.20;99.90;;;;;;4993234;28;20189;-75
2021/12/13 00:48:38;;;;;;;3.50;2.17;;;8.30;99.90;;;;;;4993578;28;20265;-79
2021/12/13 00:51:09;;;;;;;3.93;2.40;;;8.20;99.90;;;;;;5010623;28;20175;-78
2021/12/13 00:53:41;;;;;;;3.10;2.30;;;8.20;99.90;;;;;;5009735;28;20548;-78
2021/12/13 00:57:01;;;;;;;4.40;2.10;;;8.10;99.90;;;;;;5009384;28;20202;-75
2021/12/13 00:59:36;;;;;;;4.33;2.40;;;8.20;99.90;;;;;;4896346;29;20268;-76
2021/12/13 01:02:19;;;;;;;5.53;2.10;;;8.10;99.90;;;;;;4999012;28;20657;-76
2021/12/13 01:04:58;;;;;;;3.07;2.17;;;8.20;99.90;;;;;;5002540;28;20686;-75
2021/12/13 01:07:33;;;;;;;6.30;2.10;;;8.20;99.90;;;;;;5030118;28;20170;-74
2021/12/13 01:10:17;;;;;;;4.77;2.20;;;8.30;99.90;;;;;;4996626;28;20161;-75
2021/12/13 01:12:51;;;;;;;3.13;2.17;;;8.20;99.90;;;;;;5030498;28;20182;-75
2021/12/13 01:15:29;;;;;;;3.43;2.13;;;8.20;99.90;;;;;;5030202;28;20818;-75
2021/12/13 01:18:19;;;;;;;6.10;2.20;;;8.20;99.90;;;;;;5046008;28;20172;-78
2021/12/13 01:21:03;;;;;;;3.33;2.20;;;8.10;99.90;;;;;;5045859;28;20177;-76
2021/12/13 01:23:44;;;;;;;6.87;2.07;;;8.20;99.90;;;;;;5033080;28;20171;-75
2021/12/13 01:26:27;;;;;;;3.53;2.30;;;8.10;99.90;;;;;;5010687;28;20731;-76
2021/12/13 01:29:00;;;;;;;7.63;2.47;;;8.00;99.90;;;;;;4996973;28;20209;-74
2021/12/13 01:31:37;;;;;;;4.60;2.67;;;8.10;99.90;;;;;;5009359;28;20253;-76
2021/12/13 01:34:06;;;;;;;6.50;2.43;;;7.90;99.90;;;;;;5008957;28;20564;-78
2021/12/13 01:36:48;;;;;;;2.80;2.30;;;7.90;99.90;;;;;;5009821;28;20206;-77
2021/12/13 01:39:19;;;;;;;3.67;2.20;;;8.00;99.90;;;;;;5009269;28;20535;-78
2021/12/13 01:41:49;;;;;;;7.00;2.60;;;8.10;99.90;;;;;;5009700;28;20759;-74
2021/12/13 01:44:22;;;;;;;4.37;2.77;;;8.00;99.90;;;;;;5009186;28;20166;-78
2021/12/13 01:47:00;;;;;;;3.97;2.87;;;8.00;99.90;;;;;;4990331;28;20182;-76
2021/12/13 01:49:33;;;;;;;5.67;2.70;;;8.00;99.90;;;;;;5021560;28;20178;-76
2021/12/13 01:52:01;;;;;;;3.83;2.30;;;8.00;99.90;;;;;;4992931;28;20182;-75
2021/12/13 01:54:28;;;;;;;7.27;3.00;;;8.10;99.90;;;;;;5010238;28;20249;-77
2021/12/13 02:00:02;;;;;;;5.27;2.63;;;8.10;99.90;;;;;;5006936;28;20544;-74
2021/12/13 02:02:40;;;;;;;6.10;2.87;;;8.20;99.90;;;;;;5012327;28;20182;-74
2021/12/13 02:05:09;;;;;;;5.37;2.77;;;8.10;99.90;;;;;;4992659;28;20190;-77
2021/12/13 02:07:50;;;;;;;4.20;2.97;;;8.10;99.90;;;;;;5009348;28;20515;-77
2021/12/13 02:10:41;;;;;;;5.33;2.67;;;8.10;99.90;;;;;;5010473;28;20170;-78
2021/12/13 02:13:26;;;;;;;4.77;2.97;;;7.90;99.90;;;;;;5010784;28;20190;-77
2021/12/13 02:18:50;;;;;;;5.37;2.33;;;8.00;99.90;;;;;;5010100;28;20257;-75
2021/12/13 02:21:27;;;;;;;7.20;3.77;;;8.10;99.90;;;;;;4992090;28;20672;-77
2021/12/13 02:23:57;;;;;;;4.70;3.10;;;8.10;99.90;;;;;;4993545;28;20189;-77
2021/12/13 02:26:26;;;;;;;7.37;3.20;;;8.00;99.90;;;;;;4992123;28;20186;-75
2021/12/13 02:29:08;;;;;;;4.17;2.93;;;8.10;99.90;;;;;;5025332;28;20182;-77
2021/12/13 02:31:38;;;;;;;4.50;2.90;;;8.10;99.90;;;;;;4992274;28;20179;-78
2021/12/13 02:34:15;;;;;;;5.40;2.83;;;8.00;99.90;;;;;;5008652;28;20170;-78
2021/12/13 02:36:47;;;;;;;5.87;3.20;;;8.00;99.90;;;;;;4991896;28;20632;-75
2021/12/13 02:39:16;;;;;;;3.70;2.80;;;8.00;99.90;;;;;;5008573;28;20162;-74
2021/12/13 02:41:45;;;;;;;4.87;3.03;;;8.10;99.90;;;;;;4976166;28;20179;-78
2021/12/13 02:44:27;;;;;;;4.57;2.80;;;8.10;99.90;;;;;;4992116;28;20174;-78
2021/12/13 02:46:57;;;;;;;4.87;3.20;;;8.00;99.90;;;;;;5010035;28;20652;-78
2021/12/13 02:49:23;;;;;;;6.77;3.00;;;8.10;99.90;;;;;;4995704;28;20387;-75
2021/12/13 02:51:57;;;;;;;6.30;3.37;;;8.20;99.90;;;;;;5012222;28;20179;-78
2021/12/13 02:54:29;;;;;;;4.70;3.43;;;8.10;99.90;;;;;;4995844;28;20542;-78
2021/12/13 02:57:03;;;;;;;9.43;3.13;;;8.10;99.90;;;;;;5012171;28;20202;-78
2021/12/13 02:59:33;;;;;;;5.23;3.80;;;8.20;99.90;;;;;;5011551;28;20182;-76
2021/12/13 03:02:14;;;;;;;3.40;2.93;;;8.10;99.90;;;;;;4980018;28;20555;-75
2021/12/13 03:04:40;;;;;;;6.70;3.80;;;8.20;99.90;;;;;;4978870;28;20171;-75
2021/12/13 03:07:26;;;;;;;5.43;3.00;;;8.20;99.90;;;;;;4992459;28;20634;-77
2021/12/13 03:09:54;;;;;;;4.53;3.20;;;8.20;99.90;;;;;;4992059;28;20184;-77
2021/12/13 03:12:22;;;;;;;4.47;2.87;;;8.10;99.90;;;;;;4992507;28;20283;-78
2021/12/13 03:14:55;;;;;;;4.57;2.90;;;8.10;99.90;;;;;;4993146;28;20210;-74
2021/12/13 03:17:37;;;;;;;5.00;3.37;;;8.10;99.90;;;;;;4976349;28;20214;-77
2021/12/13 03:20:15;;;;;;;5.03;2.60;;;8.20;99.90;;;;;;4993752;28;20171;-77
2021/12/13 03:23:15;;;;;;;5.80;3.10;;;8.10;99.90;;;;;;5024420;28;20175;-77
2021/12/13 03:26:00;;;;;;;6.00;3.70;;;8.10;99.90;;;;;;5011179;28;20390;-75
2021/12/13 03:28:53;;;;;;;5.73;3.13;;;8.10;99.90;;;;;;5012308;28;20170;-77
2021/12/13 03:31:25;;;;;;;7.70;3.17;;;8.10;99.90;;;;;;5011574;28;20229;-78
2021/12/13 03:33:51;;;;;;;3.77;2.80;;;8.00;99.90;;;;;;4996293;28;20178;-76
2021/12/13 03:36:24;;;;;;;7.73;3.73;;;8.00;99.90;;;;;;5011108;28;20201;-78
2021/12/13 03:38:58;;;;;;;7.27;3.73;;;8.10;99.90;;;;;;4994993;28;20178;-78
2021/12/13 03:41:26;;;;;;;6.60;3.70;;;8.30;99.90;;;;;;5011113;28;20209;-77
2021/12/13 03:43:57;;;;;;;6.23;3.53;;;8.20;99.90;;;;;;5011253;28;20625;-77
2021/12/13 03:46:26;;;;;;;6.97;3.53;;;8.20;99.90;;;;;;5010655;28;20688;-78
2021/12/13 03:48:56;;;;;;;5.67;3.20;;;8.10;99.90;;;;;;5012137;28;20170;-75
2021/12/13 03:51:28;;;;;;;8.60;3.70;;;8.00;99.90;;;;;;5010625;28;20179;-74
2021/12/13 03:53:57;;;;;;;4.77;3.57;;;8.10;99.90;;;;;;4994278;28;20622;-75
2021/12/13 03:56:28;;;;;;;5.13;3.33;;;8.20;99.90;;;;;;4994390;28;20301;-74
2021/12/13 03:58:59;;;;;;;6.00;3.87;;;8.10;99.90;;;;;;5010825;28;20210;-77
2021/12/13 04:01:45;;;;;;;5.90;3.10;;;8.20;99.90;;;;;;5010669;28;20175;-78
2021/12/13 04:04:20;;;;;;;4.33;3.67;;;8.10;99.90;;;;;;5010872;28;20179;-78
2021/12/13 04:06:51;;;;;;;9.33;3.90;;;8.10;99.90;;;;;;5011544;28;20181;-79
2021/12/13 04:09:20;;;;;;;7.10;3.83;;;8.10;99.90;;;;;;5010473;28;20653;-75
2021/12/13 04:11:47;;;;;;;4.93;3.50;;;8.20;99.90;;;;;;5010421;28;20551;-76
2021/12/13 04:14:24;;;;;;;6.27;3.93;;;8.20;99.90;;;;;;5010397;28;20202;-76
2021/12/13 04:17:08;;;;;;;6.60;3.60;;;8.20;99.90;;;;;;5010255;28;20271;-78
2021/12/13 04:19:51;;;;;;;7.03;3.90;;;8.20;99.90;;;;;;4994102;28;20182;-78
2021/12/13 04:22:20;;;;;;;8.27;4.80;;;8.20;99.90;;;;;;5010314;28;20194;-78
2021/12/13 04:25:01;;;;;;;5.50;3.77;;;8.20;99.90;;;;;;5011393;28;20201;-78
2021/12/13 04:27:34;;;;;;;6.90;4.03;;;8.20;99.90;;;;;;5011286;28;20185;-76
2021/12/13 04:30:24;;;;;;;7.53;4.30;;;8.20;99.90;;;;;;5010135;28;20221;-78
2021/12/13 04:32:59;;;;;;;4.97;3.57;;;8.20;99.90;;;;;;4994264;28;20174;-75
2021/12/13 04:35:27;;;;;;;7.77;4.20;;;8.20;99.90;;;;;;4977440;28;20202;-78
2021/12/13 04:37:56;;;;;;;6.97;3.93;;;8.00;99.90;;;;;;5011747;28;20181;-76
2021/12/13 04:40:39;;;;;;;6.60;4.30;;;8.10;99.90;;;;;;5010177;28;20194;-78
2021/12/13 04:43:07;;;;;;;5.57;3.70;;;8.20;99.90;;;;;;5009842;28;20190;-77
2021/12/13 04:45:34;;;;;;;6.63;3.83;;;8.20;99.90;;;;;;5011123;28;20167;-75
2021/12/13 04:48:16;;;;;;;6.23;3.97;;;8.20;99.90;;;;;;5011140;28;20273;-76
2021/12/13 04:50:52;;;;;;;6.73;4.30;;;8.20;99.90;;;;;;4977461;28;20175;-79
2021/12/13 04:53:26;;;;;;;4.57;3.23;;;8.30;99.90;;;;;;4993689;28;20649;-76
2021/12/13 04:55:54;;;;;;;7.13;3.70;;;8.30;99.90;;;;;;5009906;28;20194;-77
2021/12/13 04:58:22;;;;;;;6.80;4.40;;;8.30;99.90;;;;;;4993966;28;20178;-76
2021/12/13 05:00:52;;;;;;;4.37;3.33;;;8.30;99.90;;;;;;4993405;28;20709;-79
2021/12/13 05:03:22;;;;;;;6.97;4.57;;;8.30;99.90;;;;;;5009526;28;20209;-79
2021/12/13 05:05:48;;;;;;;10.03;4.20;;;8.30;99.90;;;;;;5010892;28;20193;-79
2021/12/13 05:08:16;;;;;;;6.63;3.67;;;8.30;99.90;;;;;;4993417;28;20178;-76
2021/12/13 05:10:48;;;;;;;5.77;3.97;;;8.30;99.90;;;;;;4992803;28;20174;-79
2021/12/13 05:13:24;;;;;;;8.07;3.80;;;8.20;99.90;;;;;;5010130;28;20592;-77
2021/12/13 05:16:08;;;;;;;5.27;3.90;;;8.20;99.90;;;;;;5008974;28;20205;-78
2021/12/13 05:18:49;;;;;;;6.23;4.13;;;8.10;99.90;;;;;;4983162;28;20179;-76
2021/12/13 05:21:28;;;;;;;5.60;4.00;;;8.10;99.90;;;;;;4987829;28;20183;-79
2021/12/13 05:24:02;;;;;;;5.70;3.77;;;8.20;99.90;;;;;;5026108;28;20551;-79
2021/12/13 05:26:50;;;;;;;6.70;4.30;;;8.20;99.90;;;;;;4977118;28;20186;-78
2021/12/13 05:29:30;;;;;;;6.07;3.30;;;7.90;99.90;;;;;;5010701;28;20166;-78
2021/12/13 05:32:01;;;;;;;10.07;4.00;;;8.10;99.90;;;;;;4973113;28;20196;-79
2021/12/13 05:34:38;;;;;;;5.67;4.07;;;8.20;99.90;;;;;;4988695;28;20186;-75
2021/12/13 05:37:06;;;;;;;6.07;4.37;;;8.30;99.90;;;;;;4993656;28;20218;-75
2021/12/13 05:39:33;;;;;;;7.30;4.60;;;8.30;99.90;;;;;;4977602;28;20179;-75
2021/12/13 05:42:06;;;;;;;7.20;3.90;;;8.40;99.90;;;;;;5010959;28;20200;-79
2021/12/13 05:44:36;;;;;;;5.87;4.17;;;8.40;99.90;;;;;;4993361;28;20171;-79
2021/12/13 05:47:06;;;;;;;6.47;4.13;;;8.40;99.90;;;;;;5009552;28;20183;-74
2021/12/13 05:49:40;;;;;;;7.63;4.27;;;8.40;99.90;;;;;;4993432;28;20182;-75
2021/12/13 05:52:12;;;;;;;8.03;4.07;;;8.40;99.90;;;;;;5009484;28;20166;-79
2021/12/13 05:54:51;;;;;;;6.30;4.23;;;8.40;99.90;;;;;;5009552;28;20537;-78
2021/12/13 05:57:25;;;;;;;8.47;6.03;;;8.20;99.90;;;;;;4989916;28;20178;-79
2021/12/13 05:59:51;;;;;;;5.90;4.60;;;8.30;99.90;;;;;;4990330;28;20269;-80
2021/12/13 06:02:38;;;;;;;7.10;4.20;;;8.40;99.90;;;;;;5006163;28;20369;-77
2021/12/13 06:05:23;;;;;;;6.90;4.00;;;8.50;99.90;;;;;;4991211;28;20186;-79
2021/12/13 06:08:08;;;;;;;6.43;5.13;;;8.30;99.90;;;;;;4994667;28;20202;-78
2021/12/13 06:10:59;;;;;;;9.40;4.90;;;8.30;99.90;;;;;;4994069;28;20261;-79
2021/12/13 06:13:39;;;;;;;11.13;5.07;;;8.40;99.90;;;;;;4992974;28;20196;-79
2021/12/13 06:16:05;;;;;;;7.07;5.03;;;8.30;99.90;;;;;;5008175;28;20210;-80
2021/12/13 06:18:40;;;;;;;11.43;4.77;;;8.30;99.90;;;;;;4974592;28;20270;-76
2021/12/13 06:21:32;;;;;;;8.37;4.67;;;8.30;99.90;;;;;;5006714;28;20535;-75
2021/12/13 06:23:58;;;;;;;8.47;4.60;;;8.30;99.90;;;;;;5028678;28;20258;-80
2021/12/13 06:26:30;;;;;;;7.47;4.57;;;8.30;99.90;;;;;;5001144;28;20198;-75
2021/12/13 06:28:59;;;;;;;6.77;4.53;;;8.40;99.90;;;;;;5002181;28;20654;-76
2021/12/13 06:31:45;;;;;;;6.43;4.00;;;8.30;99.90;;;;;;5003602;28;20659;-80
2021/12/13 06:34:15;;;;;;;5.80;4.17;;;8.50;99.90;;;;;;5008569;28;20621;-80
2021/12/13 06:36:52;;;;;;;6.37;4.23;;;8.50;99.90;;;;;;5008745;28;20592;-81
2021/12/13 06:39:31;;;;;;;5.17;3.50;;;8.50;99.90;;;;;;5012417;28;20194;-75
2021/12/13 06:42:00;;;;;;;8.87;4.40;;;8.50;99.90;;;;;;5005813;28;20258;-81
2021/12/13 06:44:46;;;;;;;8.30;4.80;;;8.50;99.90;;;;;;4999866;28;20179;-76
2021/12/13 06:47:21;;;;;;;6.43;4.40;;;8.50;99.90;;;;;;4993682;28;20240;-76
2021/12/13 06:49:57;;;;;;;7.60;4.40;;;8.50;99.90;;;;;;5004804;28;20174;-75
2021/12/13 06:52:23;;;;;;;8.67;4.77;;;8.50;99.90;;;;;;5011177;28;20213;-75
2021/12/13 06:55:17;;;;;;;6.90;4.10;;;8.50;99.90;;;;;;5002620;28;20622;-80
2021/12/13 06:57:50;;;;;;;6.77;4.20;;;8.50;99.90;;;;;;4979849;28;20242;-78
2021/12/13 07:00:30;;;;;;;6.33;4.33;;;8.50;99.90;;;;;;4992160;28;20176;-77
2021/12/13 07:03:03;;;;;;;8.10;5.27;;;8.50;99.90;;;;;;4999032;28;20179;-77
2021/12/13 07:05:38;;;;;;;7.97;4.60;;;8.50;99.90;;;;;;5011744;28;20188;-81
2021/12/13 07:08:07;;;;;;;9.10;5.13;;;8.50;99.90;;;;;;4996364;28;20175;-78
2021/12/13 07:10:33;;;;;;;8.27;5.60;;;8.50;99.90;;;;;;5013087;28;20175;-80
2021/12/13 07:13:22;;;;;;;9.80;5.20;;;8.50;99.90;;;;;;5012829;28;20285;-78
2021/12/13 07:16:13;;;;;;;10.00;5.10;;;8.60;99.90;;;;;;5001458;28;20281;-79
2021/12/13 07:18:50;;;;;;;8.70;5.40;;;8.50;99.90;;;;;;4995640;28;20240;-78
2021/12/13 07:21:45;;;;;;;11.37;5.60;;;8.50;99.90;;;;;;4979616;28;20171;-77
2021/12/13 07:24:14;;;;;;;10.90;5.30;;;8.50;99.90;;;;;;5010925;28;20193;-79
2021/12/13 07:26:56;;;;;;;8.67;5.27;;;8.50;99.90;;;;;;4995788;28;20280;-79
2021/12/13 07:29:50;;;;;;;8.57;5.30;;;8.50;99.90;;;;;;4995271;28;20832;-76
2021/12/13 07:32:37;;;;;;;8.73;5.47;;;8.40;99.90;;;;;;4992330;28;20531;-77
2021/12/13 07:35:12;;;;;;;11.97;5.33;;;8.40;99.90;;;;;;4991955;28;20198;-80
2021/12/13 07:37:56;;;;;;;9.53;5.37;;;8.50;99.90;;;;;;4993620;28;20173;-79
2021/12/13 07:40:31;;;;;;;10.37;5.10;;;8.50;99.90;;;;;;4977582;28;20183;-80
2021/12/13 07:42:57;;;;;;;7.50;4.87;;;8.50;99.90;;;;;;4991651;28;20166;-78
2021/12/13 07:45:49;;;;;;;6.47;4.93;;;8.50;99.90;;;;;;4991136;28;20385;-77
2021/12/13 07:48:25;;;;;;;10.23;5.27;;;8.60;99.90;;;;;;4975790;28;20549;-78
2021/12/13 07:51:03;;;;;;;8.20;5.37;;;8.60;99.90;;;;;;4976486;28;20183;-79
2021/12/13 07:53:38;;;;;;;8.33;5.80;;;8.60;99.90;;;;;;4975485;28;20545;-77
2021/12/13 07:56:05;;;;;;;11.80;6.87;;;8.40;99.90;;;;;;4991681;28;20213;-78
2021/12/13 07:58:39;;;;;;;11.33;5.50;;;8.50;99.90;;;;;;4975690;28;20634;-77
2021/12/13 08:01:18;;;;;;;6.83;5.10;;;8.50;99.90;;;;;;4993019;28;20301;-78
2021/12/13 08:04:00;;;;;;;7.30;4.80;;;8.60;99.90;;;;;;4960499;28;20185;-77
2021/12/13 08:06:54;;;;;;;8.73;5.03;;;8.70;99.90;;;;;;4975265;28;20265;-80
2021/12/13 08:09:23;;;;;;;7.53;5.13;;;8.70;99.90;;;;;;4993723;28;20191;-79
2021/12/13 08:11:57;;;;;;;11.40;4.43;;;8.70;99.90;;;;;;4991652;28;20254;-77
2021/12/13 08:14:32;;;;;;;6.27;4.10;;;8.70;99.90;;;;;;4991387;28;20218;-81
2021/12/13 08:17:18;;;;;;;6.87;4.43;;;8.70;99.90;;;;;;4975045;28;20230;-80
2021/12/13 08:19:56;;;;;;;7.93;4.70;;;8.70;99.90;;;;;;4991321;28;20175;-78
2021/12/13 08:22:28;;;;;;;7.30;4.70;;;8.80;99.90;;;;;;4974901;28;20171;-78
2021/12/13 08:25:00;;;;;;;9.93;4.63;;;8.80;99.90;;;;;;4992720;28;20230;-77
2021/12/13 08:27:39;;;;;;;7.00;4.70;;;8.90;99.90;;;;;;4991390;28;20179;-78
2021/12/13 08:30:15;;;;;;;7.53;4.97;;;8.90;99.90;;;;;;4975903;28;20202;-81
2021/12/13 08:33:02;;;;;;;10.40;5.43;;;8.80;99.90;;;;;;4975131;28;20202;-78
2021/12/13 08:35:53;;;;;;;10.63;5.37;;;8.80;99.90;;;;;;4991342;28;20199;-80
2021/12/13 08:38:28;;;;;;;11.33;5.70;;;8.90;99.90;;;;;;4975080;28;20205;-77
2021/12/13 08:40:55;;;;;;;9.93;5.37;;;8.90;99.90;;;;;;4992527;28;20178;-80
2021/12/13 08:43:48;;;;;;;11.30;5.53;;;8.90;99.90;;;;;;4992604;28;20178;-78
2021/12/13 08:46:39;;;;;;;10.23;5.50;;;9.00;99.90;;;;;;4990310;28;20189;-79
2021/12/13 08:49:21;;;;;;;6.90;4.80;;;9.00;99.90;;;;;;4975310;28;20171;-80
2021/12/13 08:52:18;;;;;;;9.83;5.87;;;9.10;99.90;;;;;;4992142;28;20209;-78
2021/12/13 08:54:59;;;;;;;9.83;5.63;;;9.10;99.90;;;;;;4964605;28;20192;-77
2021/12/13 08:57:44;;;;;;;11.40;6.03;;;9.20;99.90;;;;;;4992430;28;20206;-78
2021/12/13 09:00:13;;;;;;;9.13;5.53;;;9.30;99.90;;;;;;4990779;28;20262;-78
2021/12/13 09:02:44;;;;;;;13.77;6.90;;;9.20;99.90;;;;;;4990233;28;20270;-79
2021/12/13 09:05:10;;;;;;;11.03;5.70;;;8.90;99.90;;;;;;4991458;28;20823;-79
2021/12/13 09:07:36;;;;;;;10.50;5.77;;;8.90;99.90;;;;;;5009557;28;20186;-77
2021/12/13 09:10:03;;;;;;;8.03;5.63;;;9.10;99.90;;;;;;5010154;28;20175;-79
2021/12/13 09:12:43;;;;;;;10.67;6.87;;;9.20;99.90;;;;;;4993553;28;20170;-78
2021/12/13 09:15:26;;;;;;;9.27;5.67;;;9.30;99.90;;;;;;5009568;28;20613;-80
2021/12/13 09:17:52;;;;;;;9.13;6.00;;;9.30;99.90;;;;;;5010156;28;20188;-77
2021/12/13 09:20:28;;;;;;;7.57;5.90;;;9.20;99.90;;;;;;4977495;28;20232;-77
2021/12/13 09:22:58;;;;;;;15.63;6.60;;;9.30;99.90;;;;;;5011062;28;20244;-78
2021/12/13 09:25:31;;;;;;;9.53;6.00;;;9.30;99.90;;;;;;5010967;28;20178;-77
2021/12/13 09:28:03;;;;;;;8.83;5.43;;;9.40;99.90;;;;;;4978111;28;20182;-81
2021/12/13 09:30:38;;;;;;;9.60;6.70;;;9.50;99.90;;;;;;4993573;28;20178;-77
2021/12/13 09:33:15;;;;;;;7.57;5.60;;;9.50;99.90;;;;;;5009647;28;20182;-77
2021/12/13 09:36:05;;;;;;;9.97;6.13;;;9.50;99.90;;;;;;4993008;28;20198;-78
2021/12/13 09:38:36;;;;;;;12.47;6.77;;;9.70;99.90;;;;;;5011364;28;20642;-77
2021/12/13 09:41:30;;;;;;;11.63;6.97;;;9.70;99.90;;;;;;4993726;28;20705;-81
2021/12/13 09:44:02;;;;;;;11.40;6.10;;;9.50;99.90;;;;;;5009780;28;20231;-80
2021/12/13 09:46:37;;;;;;;8.50;5.17;;;9.60;99.90;;;;;;4993333;28;20174;-77
2021/12/13 09:49:19;;;;;;;10.60;6.10;;;9.70;99.90;;;;;;4993719;28;20227;-77
2021/12/13 09:51:49;;;;;;;10.83;6.10;;;9.70;99.90;;;;;;5009971;28;20232;-80
2021/12/13 09:54:20;;;;;;;9.00;5.43;;;9.70;99.90;;;;;;5009450;28;20652;-77
2021/12/13 09:56:49;;;;;;;11.40;5.87;;;9.80;99.90;;;;;;4978116;28;20291;-77
2021/12/13 09:59:40;;;;;;;9.33;5.50;;;9.80;99.90;;;;;;5013405;28;20174;-77
2021/12/13 10:02:15;;;;;;;10.27;6.00;;;9.90;99.90;;;;;;4996958;28;20231;-79
2021/12/13 10:04:43;;;;;;;8.73;5.60;;;9.90;99.90;;;;;;5013415;28;20252;-79
2021/12/13 10:07:40;;;;;;;9.87;5.67;;;10.00;99.90;;;;;;5013499;28;20209;-77
2021/12/13 10:10:19;;;;;;;7.20;5.03;;;9.90;99.90;;;;;;4998535;28;20194;-81
2021/12/13 10:12:58;;;;;;;7.00;4.27;;;9.90;99.90;;;;;;4997337;28;20661;-78
2021/12/13 10:15:29;;;;;;;6.90;4.67;;;10.00;99.90;;;;;;4993367;28;20233;-78
2021/12/13 10:17:59;;;;;;;9.00;5.17;;;9.90;99.90;;;;;;4994233;28;20209;-78
2021/12/13 10:20:49;;;;;;;8.47;5.43;;;9.60;99.90;;;;;;4995072;28;20178;-77
2021/12/13 10:23:21;;;;;;;11.50;6.43;;;9.80;99.90;;;;;;4992637;28;20218;-77
2021/12/13 10:25:50;;;;;;;9.80;5.80;;;9.90;99.90;;;;;;4993087;28;20302;-79
2021/12/13 10:28:20;;;;;;;12.40;7.00;;;9.90;99.90;;;;;;4977148;28;20565;-80
2021/12/13 10:30:53;;;;;;;12.20;7.23;;;10.00;99.90;;;;;;5004038;28;20187;-78
2021/12/13 10:33:22;;;;;;;13.70;7.07;;;10.10;99.90;;;;;;5014420;28;20209;-80
2021/12/13 10:35:52;;;;;;;13.67;7.10;;;10.00;99.90;;;;;;4996518;28;20205;-81
2021/12/13 10:38:29;;;;;;;11.10;7.03;;;10.00;99.90;;;;;;4996254;28;20178;-81
2021/12/13 10:41:10;;;;;;;14.63;7.83;;;9.90;99.90;;;;;;4996990;28;20594;-79
2021/12/13 10:43:41;;;;;;;9.97;6.30;;;9.90;99.90;;;;;;5012691;28;21120;-78
2021/12/13 10:46:15;;;;;;;7.63;6.10;;;10.00;99.90;;;;;;5012607;28;20178;-77
2021/12/13 10:48:46;;;;;;;11.50;6.33;;;9.80;99.90;;;;;;4980613;28;20527;-78
2021/12/13 10:51:18;;;;;;;13.70;6.57;;;9.90;99.90;;;;;;4996719;28;20178;-81
2021/12/13 10:53:49;;;;;;;12.43;6.77;;;9.90;99.90;;;;;;5012410;28;20186;-80
2021/12/13 10:56:27;;;;;;;10.47;6.07;;;9.90;99.90;;;;;;4979677;28;20213;-80
2021/12/13 10:58:57;;;;;;;12.30;6.37;;;10.00;99.90;;;;;;5014035;28;20170;-80
2021/12/13 11:01:35;;;;;;;11.40;6.90;;;10.10;99.90;;;;;;4996315;28;20183;-81
2021/12/13 11:04:06;;;;;;;12.80;6.90;;;10.20;99.90;;;;;;5012107;28;20169;-79
2021/12/13 11:06:35;;;;;;;12.90;7.77;;;10.10;99.90;;;;;;5012094;28;20176;-79
2021/12/13 11:09:06;;;;;;;11.60;7.50;;;10.10;99.90;;;;;;4994457;28;20190;-79
2021/12/13 11:11:46;;;;;;;14.53;7.90;;;10.20;99.90;;;;;;4995420;28;20166;-78
2021/12/13 11:14:17;;;;;;;15.30;7.83;;;10.20;99.90;;;;;;4995876;28;20210;-77
2021/12/13 11:16:50;;;;;;;15.40;8.27;;;10.30;99.90;;;;;;5013102;28;20206;-77
2021/12/13 11:19:19;;;;;;;12.77;7.47;;;10.30;99.90;;;;;;5011840;28;20174;-77
2021/12/13 11:21:49;;;;;;;13.60;6.93;;;10.30;99.90;;;;;;5012353;28;20205;-76
2021/12/13 11:24:19;;;;;;;17.30;9.80;;;10.30;99.90;;;;;;5028543;28;20248;-81
2021/12/13 11:26:49;;;;;;;13.10;7.87;;;10.30;99.90;;;;;;4995651;28;20186;-77
2021/12/13 11:29:15;;;;;;;14.00;7.87;;;10.40;99.90;;;;;;5011736;28;20711;-80
2021/12/13 11:31:48;;;;;;;13.17;6.53;;;10.40;99.90;;;;;;4995311;28;20194;-78
2021/12/13 11:34:44;;;;;;;10.60;6.87;;;10.40;99.90;;;;;;4995201;28;20183;-77
2021/12/13 11:38:00;;;;;;;12.77;7.93;;;10.30;99.90;;;;;;5012582;28;20206;-78
2021/12/13 11:40:52;;;;;;;13.67;6.73;;;10.20;99.90;;;;;;5011380;28;20171;-78
2021/12/13 11:43:50;;;;;;;11.53;6.67;;;10.20;99.90;;;;;;5011625;28;20166;-77
2021/12/13 11:46:37;;;;;;;13.17;7.03;;;10.10;99.90;;;;;;5011647;28;20194;-80
2021/12/13 11:49:30;;;;;;;11.90;6.90;;;10.30;99.90;;;;;;5010938;28;20228;-79
2021/12/13 11:52:18;;;;;;;12.97;6.70;;;10.30;99.90;;;;;;5011269;28;20203;-78
2021/12/13 11:55:08;;;;;;;10.27;6.27;;;10.30;99.90;;;;;;5012363;28;20732;-78
2021/12/13 11:57:46;;;;;;;9.10;6.13;;;10.20;99.90;;;;;;4994773;28;20533;-80
2021/12/13 12:00:48;;;;;;;11.77;6.73;;;10.20;99.90;;;;;;5012791;28;20166;-77
2021/12/13 12:03:41;;;;;;;11.00;6.17;;;10.30;99.90;;;;;;4996086;28;20182;-77
2021/12/13 12:06:45;;;;;;;11.43;7.13;;;10.50;99.90;;;;;;5011122;28;20645;-77
2021/12/13 12:09:47;;;;;;;9.90;7.17;;;10.50;99.90;;;;;;4994841;28;20197;-77
2021/12/13 12:12:31;;;;;;;9.23;6.63;;;10.40;99.90;;;;;;5011001;28;20205;-79
2021/12/13 12:15:01;;;;;;;13.13;6.40;;;10.30;99.90;;;;;;5010766;28;20209;-76
2021/12/13 12:17:33;;;;;;;10.37;6.13;;;10.30;99.90;;;;;;4994350;28;20213;-80
2021/12/13 12:20:00;;;;;;;11.53;6.17;;;10.30;99.90;;;;;;4995043;28;20661;-77
2021/12/13 12:22:42;;;;;;;10.37;6.60;;;10.40;99.90;;;;;;4994934;28;20246;-82
2021/12/13 12:25:08;;;;;;;8.90;6.13;;;10.40;99.90;;;;;;5010721;28;20171;-76
2021/12/13 12:27:36;;;;;;;11.07;6.80;;;10.40;99.90;;;;;;4994483;28;20269;-77
2021/12/13 12:30:08;;;;;;;12.50;7.10;;;10.40;99.90;;;;;;5010997;28;20167;-77
2021/12/13 12:32:39;;;;;;;10.67;6.43;;;10.40;99.90;;;;;;5010640;28;20178;-80
2021/12/13 12:35:11;;;;;;;11.27;6.47;;;10.50;99.90;;;;;;5010793;28;20206;-79
2021/12/13 12:38:03;;;;;;;9.80;6.20;;;10.40;99.90;;;;;;5011164;28;20190;-78
2021/12/13 12:40:37;;;;;;;9.77;7.20;;;10.50;99.90;;;;;;4994366;28;20170;-77
2021/12/13 12:43:20;;;;;;;8.97;6.10;;;10.40;99.90;;;;;;4994612;28;20186;-81
2021/12/13 12:45:53;;;;;;;12.47;6.90;;;10.40;99.90;;;;;;4994522;28;20194;-80
2021/12/13 12:48:27;;;;;;;9.57;5.97;;;10.50;99.90;;;;;;4994811;28;20174;-81
2021/12/13 12:51:13;;;;;;;9.67;6.17;;;10.40;99.90;;;;;;4994554;28;20174;-80
2021/12/13 12:53:58;;;;;;;8.53;6.43;;;10.20;99.90;;;;;;4994531;28;20545;-77
2021/12/13 12:56:30;;;;;;;10.60;6.57;;;10.30;99.90;;;;;;4995061;28;20214;-78
2021/12/13 12:59:08;;;;;;;9.97;5.80;;;10.40;99.90;;;;;;5010256;28;20523;-76
2021/12/13 13:01:48;;;;;;;11.27;7.17;;;10.40;99.90;;;;;;5010572;28;20182;-80
2021/12/13 13:04:24;;;;;;;10.37;6.53;;;10.40;99.90;;;;;;4995218;28;20835;-77
2021/12/13 13:07:02;;;;;;;10.33;6.60;;;10.30;99.90;;;;;;4977676;28;20297;-80
2021/12/13 13:09:59;;;;;;;13.10;7.37;;;10.30;99.90;;;;;;5011476;28;20655;-79
2021/12/13 13:12:34;;;;;;;12.20;7.17;;;10.10;99.90;;;;;;5011547;28;20554;-81
2021/12/13 13:15:10;;;;;;;11.87;6.63;;;10.30;99.90;;;;;;5029616;28;20213;-80
2021/12/13 13:17:43;;;;;;;10.27;6.30;;;10.30;99.90;;;;;;5010192;28;20232;-77
2021/12/13 13:20:16;;;;;;;9.03;6.00;;;10.20;99.90;;;;;;5026953;28;20205;-77
2021/12/13 13:22:46;;;;;;;9.17;6.70;;;10.20;99.90;;;;;;4994617;28;20170;-81
2021/12/13 13:25:47;;;;;;;10.13;5.97;;;10.40;99.90;;;;;;4994186;28;20201;-79
2021/12/13 13:28:20;;;;;;;8.33;4.80;;;10.50;99.90;;;;;;4955381;28;20349;-81
2021/12/13 13:31:01;;;;;;;9.07;5.30;;;10.30;99.90;;;;;;5026975;28;20233;-81
2021/12/13 13:33:40;;;;;;;11.03;5.60;;;10.40;99.90;;;;;;4993657;28;20261;-77
2021/12/13 13:36:08;;;;;;;9.43;5.23;;;10.40;99.90;;;;;;5010387;28;20198;-80
2021/12/13 13:38:34;;;;;;;7.50;5.07;;;10.40;99.90;;;;;;5009997;28;20618;-77
2021/12/13 13:41:00;;;;;;;10.10;5.03;;;10.40;99.90;;;;;;4993521;28;20170;-77
2021/12/13 13:43:31;;;;;;;7.43;4.63;;;10.40;99.90;;;;;;5011019;28;20590;-80
2021/12/13 13:45:59;;;;;;;6.80;4.47;;;10.50;99.90;;;;;;5009652;28;20180;-78
2021/12/13 13:48:34;;;;;;;5.60;3.83;;;10.40;99.90;;;;;;5005790;28;20182;-80